Time,TemperatureF,DewpointF,PressureIn,WindDirection,WindDirectionDegrees,WindSpeedMPH,WindSpeedGustMPH,Humidity,HourlyPrecipIn,Conditions,Clouds,dailyrainin,SoftwareType,DateUTC
2013-04-06 00:02:00,41.1,29.1,28.81,SSE,158,7.1,7.3,62,0.00,,,0.00,WUHU216HW,2013-04-06 05:02:00,
2013-04-06 00:07:00,41.1,29.1,28.81,SE,135,5.1,7.3,62,0.00,,,0.00,WUHU216HW,2013-04-06 05:07:00,
2013-04-06 00:12:00,41.1,29.1,28.81,SE,135,0.0,7.1,62,0.00,,,0.00,WUHU216HW,2013-04-06 05:12:00,
2013-04-06 00:17:00,41.1,29.1,28.81,SE,135,0.2,3.1,62,0.00,,,0.00,WUHU216HW,2013-04-06 05:17:00,
2013-04-06 00:22:00,41.1,29.1,28.80,SSE,158,0.0,7.8,62,0.00,,,0.00,WUHU216HW,2013-04-06 05:22:00,
2013-04-06 00:27:00,41.3,29.3,28.80,SE,135,7.3,7.8,62,0.00,,,0.00,WUHU216HW,2013-04-06 05:27:00,
2013-04-06 00:32:00,41.3,29.3,28.80,SSE,158,0.6,7.3,62,0.00,,,0.00,WUHU216HW,2013-04-06 05:32:00,
2013-04-06 00:38:00,41.5,29.4,28.80,SE,135,6.9,7.3,62,0.00,,,0.00,WUHU216HW,2013-04-06 05:38:00,
2013-04-06 00:43:00,41.5,29.4,28.80,SE,135,7.3,7.3,62,0.00,,,0.00,WUHU216HW,2013-04-06 05:43:00,
2013-04-06 00:48:00,41.5,29.4,28.79,ESE,113,0.0,7.3,62,0.00,,,0.00,WUHU216HW,2013-04-06 05:48:00,
2013-04-06 00:53:00,41.5,29.4,28.79,SE,135,7.1,7.3,62,0.00,,,0.00,WUHU216HW,2013-04-06 05:53:00,
2013-04-06 00:58:00,41.5,29.4,28.79,SE,135,2.2,7.1,62,0.00,,,0.00,WUHU216HW,2013-04-06 05:58:00,
2013-04-06 01:03:00,41.5,29.4,28.79,SE,135,5.8,7.6,62,0.00,,,0.00,WUHU216HW,2013-04-06 06:03:00,
2013-04-06 01:08:00,41.5,29.4,28.79,SE,135,7.4,7.6,62,0.00,,,0.00,WUHU216HW,2013-04-06 06:08:00,
2013-04-06 01:13:00,41.5,29.4,28.79,SE,135,0.6,8.0,62,0.00,,,0.00,WUHU216HW,2013-04-06 06:13:00,
2013-04-06 01:18:00,41.5,29.8,28.79,SE,135,6.9,8.0,63,0.00,,,0.00,WUHU216HW,2013-04-06 06:18:00,
2013-04-06 01:23:00,41.5,29.8,28.79,SE,135,5.7,6.9,63,0.00,,,0.00,WUHU216HW,2013-04-06 06:23:00,
2013-04-06 01:28:00,41.5,29.8,28.79,SE,135,7.1,7.1,63,0.00,,,0.00,WUHU216HW,2013-04-06 06:28:00,
2013-04-06 01:34:00,41.5,29.8,28.78,SE,135,6.0,7.1,63,0.00,,,0.00,WUHU216HW,2013-04-06 06:34:00,
2013-04-06 01:39:00,41.5,29.8,28.78,SSE,158,7.6,7.6,63,0.00,,,0.00,WUHU216HW,2013-04-06 06:39:00,
2013-04-06 01:44:00,41.5,29.8,28.78,SE,135,8.2,8.2,63,0.00,,,0.00,WUHU216HW,2013-04-06 06:44:00,
2013-04-06 01:49:00,41.5,29.8,28.78,SE,135,4.9,8.2,63,0.00,,,0.00,WUHU216HW,2013-04-06 06:49:00,
2013-04-06 01:55:00,41.5,29.8,28.78,SE,135,6.7,7.8,63,0.00,,,0.00,WUHU216HW,2013-04-06 06:55:00,
2013-04-06 02:00:00,41.5,29.8,28.77,SSE,147,5.1,8.7,63,0.00,,,0.00,WUHU216HW,2013-04-06 07:00:00,
2013-04-06 02:07:00,41.5,29.8,28.77,SE,135,4.6,5.5,63,0.00,,,0.00,WUHU216HW,2013-04-06 07:07:00,
2013-04-06 02:12:00,41.5,29.8,28.77,SE,124,7.3,7.6,63,0.00,,,0.00,WUHU216HW,2013-04-06 07:12:00,
2013-04-06 02:17:00,41.7,30.0,28.76,SE,135,7.3,7.6,63,0.00,,,0.00,WUHU216HW,2013-04-06 07:17:00,
2013-04-06 02:22:00,41.5,29.8,28.75,SE,135,4.4,7.3,63,0.00,,,0.00,WUHU216HW,2013-04-06 07:22:00,
2013-04-06 02:27:00,41.5,30.2,28.75,ESE,123,7.0,7.3,64,0.00,,,0.00,WUHU216HW,2013-04-06 07:27:00,
2013-04-06 02:32:00,41.5,30.2,28.75,SE,135,8.2,8.2,64,0.00,,,0.00,WUHU216HW,2013-04-06 07:32:00,
2013-04-06 02:37:00,41.5,30.2,28.75,SE,135,8.7,8.7,64,0.00,,,0.00,WUHU216HW,2013-04-06 07:37:00,
2013-04-06 02:42:00,41.5,30.2,28.75,SE,135,7.3,8.7,64,0.00,,,0.00,WUHU216HW,2013-04-06 07:42:00,
2013-04-06 02:47:00,41.5,30.2,28.74,SE,135,7.6,8.7,64,0.00,,,0.00,WUHU216HW,2013-04-06 07:47:00,
2013-04-06 02:53:00,41.5,30.2,28.74,SE,135,7.8,8.7,64,0.00,,,0.00,WUHU216HW,2013-04-06 07:53:00,
2013-04-06 02:58:00,41.5,30.2,28.74,SE,135,7.1,8.7,64,0.00,,,0.00,WUHU216HW,2013-04-06 07:58:00,
2013-04-06 03:03:00,41.5,30.2,28.74,SE,135,8.5,8.5,64,0.00,,,0.00,WUHU216HW,2013-04-06 08:03:00,
2013-04-06 03:08:00,41.3,30.4,28.74,SE,135,7.7,8.5,65,0.00,,,0.00,WUHU216HW,2013-04-06 08:08:00,
2013-04-06 03:13:00,41.1,30.2,28.73,SE,135,8.0,8.5,65,0.00,,,0.00,WUHU216HW,2013-04-06 08:13:00,
2013-04-06 03:18:00,41.1,30.2,28.73,SE,135,6.7,8.5,65,0.00,,,0.00,WUHU216HW,2013-04-06 08:18:00,
2013-04-06 03:23:00,41.0,30.1,28.73,SE,135,7.1,7.1,65,0.00,,,0.00,WUHU216HW,2013-04-06 08:23:00,
2013-04-06 03:28:00,40.8,29.9,28.72,SE,135,6.4,7.1,65,0.00,,,0.00,WUHU216HW,2013-04-06 08:28:00,
2013-04-06 03:33:00,40.8,29.9,28.71,SE,135,7.3,7.3,65,0.00,,,0.00,WUHU216HW,2013-04-06 08:33:00,
2013-04-06 03:38:00,40.6,29.7,28.71,SE,135,6.9,7.3,65,0.00,,,0.00,WUHU216HW,2013-04-06 08:38:00,
2013-04-06 03:43:00,40.6,29.7,28.71,SE,135,7.6,7.6,65,0.00,,,0.00,WUHU216HW,2013-04-06 08:43:00,
2013-04-06 03:48:00,40.2,29.3,28.71,SSE,158,7.8,7.8,65,0.00,,,0.00,WUHU216HW,2013-04-06 08:48:00,
2013-04-06 03:53:00,40.1,29.5,28.70,SE,135,7.1,7.8,66,0.00,,,0.00,WUHU216HW,2013-04-06 08:53:00,
2013-04-06 03:58:00,40.1,29.5,28.70,SE,135,5.5,7.3,66,0.00,,,0.00,WUHU216HW,2013-04-06 08:58:00,
2013-04-06 04:03:00,39.9,29.4,28.70,SE,135,4.9,7.1,66,0.00,,,0.00,WUHU216HW,2013-04-06 09:03:00,
2013-04-06 04:08:00,39.7,29.2,28.70,SSE,147,6.9,7.1,66,0.00,,,0.00,WUHU216HW,2013-04-06 09:08:00,
2013-04-06 04:13:00,39.5,29.0,28.70,SE,135,7.6,7.6,66,0.00,,,0.00,WUHU216HW,2013-04-06 09:13:00,
2013-04-06 04:18:00,39.3,29.2,28.70,SE,135,7.3,7.6,67,0.00,,,0.00,WUHU216HW,2013-04-06 09:18:00,
2013-04-06 04:23:00,39.2,29.0,28.70,SE,135,6.3,7.3,67,0.00,,,0.00,WUHU216HW,2013-04-06 09:23:00,
2013-04-06 04:28:00,39.0,28.9,28.70,SE,135,2.9,7.3,67,0.00,,,0.00,WUHU216HW,2013-04-06 09:28:00,
2013-04-06 04:33:00,39.0,28.9,28.70,ESE,113,5.5,6.4,67,0.00,,,0.00,WUHU216HW,2013-04-06 09:33:00,
2013-04-06 04:38:00,38.8,28.7,28.70,SE,135,6.4,6.9,67,0.00,,,0.00,WUHU216HW,2013-04-06 09:38:00,
2013-04-06 04:43:00,38.8,28.7,28.69,SE,135,5.3,8.0,67,0.00,,,0.00,WUHU216HW,2013-04-06 09:43:00,
2013-04-06 04:48:00,38.4,28.7,28.69,SE,135,7.3,8.0,68,0.00,,,0.00,WUHU216HW,2013-04-06 09:48:00,
2013-04-06 04:53:00,38.4,28.7,28.69,SE,135,6.0,7.6,68,0.00,,,0.00,WUHU216HW,2013-04-06 09:53:00,
2013-04-06 04:58:00,38.4,28.7,28.69,SE,135,6.4,7.3,68,0.00,,,0.00,WUHU216HW,2013-04-06 09:58:00,
2013-04-06 05:03:00,38.3,28.6,28.69,SE,135,4.2,6.4,68,0.00,,,0.00,WUHU216HW,2013-04-06 10:03:00,
2013-04-06 05:08:00,38.3,29.0,28.69,SSE,158,7.1,7.1,69,0.00,,,0.00,WUHU216HW,2013-04-06 10:08:00,
2013-04-06 05:14:00,38.3,29.0,28.69,SE,135,6.9,7.3,69,0.00,,,0.00,WUHU216HW,2013-04-06 10:14:00,
2013-04-06 05:19:00,38.4,29.1,28.68,SE,135,8.2,8.2,69,0.00,,,0.00,WUHU216HW,2013-04-06 10:19:00,
2013-04-06 05:24:00,38.4,29.1,28.68,SSE,158,7.1,8.2,69,0.00,,,0.00,WUHU216HW,2013-04-06 10:24:00,
2013-04-06 05:29:00,38.8,29.4,28.68,SSE,158,8.5,8.5,69,0.00,,,0.00,WUHU216HW,2013-04-06 10:29:00,
2013-04-06 05:34:00,38.8,29.4,28.67,SE,135,6.7,8.5,69,0.00,,,0.00,WUHU216HW,2013-04-06 10:34:00,
2013-04-06 05:39:00,39.0,29.6,28.67,SSE,158,9.1,9.1,69,0.00,,,0.00,WUHU216HW,2013-04-06 10:39:00,
2013-04-06 05:44:00,39.0,29.6,28.67,SE,135,6.7,9.1,69,0.00,,,0.00,WUHU216HW,2013-04-06 10:44:00,
2013-04-06 05:49:00,39.2,29.4,28.67,SE,135,7.6,7.6,68,0.00,,,0.00,WUHU216HW,2013-04-06 10:49:00,
2013-04-06 05:54:00,39.3,29.6,28.67,SSE,158,6.4,7.6,68,0.00,,,0.00,WUHU216HW,2013-04-06 10:54:00,
2013-04-06 05:59:00,39.3,29.6,28.66,SSE,158,8.2,8.2,68,0.00,,,0.00,WUHU216HW,2013-04-06 10:59:00,
2013-04-06 06:05:00,39.3,29.6,28.66,SSE,158,8.2,8.2,68,0.00,,,0.00,WUHU216HW,2013-04-06 11:05:00,
2013-04-06 06:10:00,39.3,29.6,28.65,ESE,113,8.0,8.2,68,0.00,,,0.00,WUHU216HW,2013-04-06 11:10:00,
2013-04-06 06:15:00,39.3,29.6,28.64,SSE,158,7.3,8.0,68,0.00,,,0.00,WUHU216HW,2013-04-06 11:15:00,
2013-04-06 06:20:00,39.3,29.6,28.64,SE,135,10.0,10.0,68,0.00,,,0.00,WUHU216HW,2013-04-06 11:20:00,
2013-04-06 06:25:00,39.3,29.6,28.64,SE,143,5.9,10.0,68,0.00,,,0.00,WUHU216HW,2013-04-06 11:25:00,
2013-04-06 06:30:00,39.3,29.6,28.64,ESE,113,4.9,9.6,68,0.00,,,0.00,WUHU216HW,2013-04-06 11:30:00,
2013-04-06 06:33:00,39.3,29.6,28.64,SE,135,8.4,9.6,68,0.00,,,0.00,WUHU216HW,2013-04-06 11:33:00,
2013-04-06 06:38:00,39.3,29.6,28.64,SSE,148,6.0,8.7,68,0.00,,,0.00,WUHU216HW,2013-04-06 11:38:00,
2013-04-06 06:43:00,39.3,29.6,28.64,SE,135,7.3,8.0,68,0.00,,,0.00,WUHU216HW,2013-04-06 11:43:00,
2013-04-06 06:48:00,39.3,29.6,28.63,SE,135,6.7,7.8,68,0.00,,,0.00,WUHU216HW,2013-04-06 11:48:00,
2013-04-06 06:53:00,39.3,30.0,28.63,SE,135,7.4,7.6,69,0.00,,,0.00,WUHU216HW,2013-04-06 11:53:00,
2013-04-06 06:58:00,39.3,30.0,28.63,SE,135,8.7,8.7,69,0.00,,,0.00,WUHU216HW,2013-04-06 11:58:00,
2013-04-06 07:03:00,39.3,30.0,28.63,SSE,158,6.2,8.7,69,0.00,,,0.00,WUHU216HW,2013-04-06 12:03:00,
2013-04-06 07:08:00,39.3,30.0,28.62,SE,135,7.0,8.0,69,0.00,,,0.00,WUHU216HW,2013-04-06 12:08:00,
2013-04-06 07:13:00,39.5,30.1,28.63,SSE,158,8.2,8.2,69,0.00,,,0.00,WUHU216HW,2013-04-06 12:13:00,
2013-04-06 07:18:00,39.7,30.3,28.62,SSE,158,6.2,8.2,69,0.00,,,0.00,WUHU216HW,2013-04-06 12:18:00,
2013-04-06 07:24:00,39.7,30.3,28.62,South,180,7.3,7.6,69,0.00,,,0.00,WUHU216HW,2013-04-06 12:24:00,
2013-04-06 07:29:00,39.9,30.5,28.63,SSE,158,8.5,8.5,69,0.00,,,0.00,WUHU216HW,2013-04-06 12:29:00,
2013-04-06 07:34:00,39.9,30.5,28.63,SE,135,6.7,8.5,69,0.00,,,0.00,WUHU216HW,2013-04-06 12:34:00,
2013-04-06 07:39:00,39.9,30.5,28.63,SE,135,8.7,8.7,69,0.00,,,0.00,WUHU216HW,2013-04-06 12:39:00,
2013-04-06 07:44:00,40.1,31.1,28.62,SE,135,7.4,8.7,70,0.00,,,0.00,WUHU216HW,2013-04-06 12:44:00,
2013-04-06 07:49:00,40.2,31.2,28.63,SE,135,6.4,7.8,70,0.00,,,0.00,WUHU216HW,2013-04-06 12:49:00,
2013-04-06 07:54:00,40.2,31.2,28.62,SE,135,6.4,7.1,70,0.00,,,0.00,WUHU216HW,2013-04-06 12:54:00,
2013-04-06 07:59:00,40.4,31.4,28.62,SE,135,6.4,8.2,70,0.00,,,0.00,WUHU216HW,2013-04-06 12:59:00,
2013-04-06 08:04:00,40.4,31.4,28.62,SE,135,6.4,8.2,70,0.00,,,0.00,WUHU216HW,2013-04-06 13:04:00,
2013-04-06 08:17:00,41.0,32.3,28.60,SE,135,7.1,7.6,71,0.00,,,0.00,WUHU216HW,2013-04-06 13:17:00,
2013-04-06 08:22:00,41.5,32.8,28.60,SE,135,7.1,7.8,71,0.00,,,0.00,WUHU216HW,2013-04-06 13:22:00,
2013-04-06 08:27:00,41.5,32.8,28.60,SE,135,6.7,7.8,71,0.00,,,0.00,WUHU216HW,2013-04-06 13:27:00,
2013-04-06 08:32:00,41.7,32.7,28.60,SE,135,7.6,8.2,70,0.00,,,0.00,WUHU216HW,2013-04-06 13:32:00,
2013-04-06 08:38:00,42.0,33.0,28.60,SE,135,7.4,8.2,70,0.00,,,0.00,WUHU216HW,2013-04-06 13:38:00,
2013-04-06 08:43:00,42.4,33.4,28.60,SSE,158,6.0,7.8,70,0.00,,,0.00,WUHU216HW,2013-04-06 13:43:00,
2013-04-06 08:48:00,42.6,33.6,28.60,SE,135,7.8,8.0,70,0.00,,,0.00,WUHU216HW,2013-04-06 13:48:00,
2013-04-06 08:53:00,43.3,34.6,28.59,SE,135,8.5,9.1,71,0.00,,,0.00,WUHU216HW,2013-04-06 13:53:00,
2013-04-06 08:58:00,43.7,34.9,28.58,SSE,158,8.9,9.1,70,0.00,,,0.00,WUHU216HW,2013-04-06 13:58:00,
2013-04-06 09:03:00,44.6,35.4,28.58,SSE,158,7.8,8.9,70,0.00,,,0.00,WUHU216HW,2013-04-06 14:03:00,
2013-04-06 09:08:00,45.3,36.1,28.58,SSE,158,5.5,8.9,70,0.00,,,0.00,WUHU216HW,2013-04-06 14:08:00,
2013-04-06 09:13:00,46.2,36.6,28.57,SSE,158,8.2,8.2,70,0.00,,,0.00,WUHU216HW,2013-04-06 14:13:00,
2013-04-06 09:18:00,46.5,36.9,28.57,South,177,10.6,12.0,69,0.00,,,0.00,WUHU216HW,2013-04-06 14:18:00,
2013-04-06 09:23:00,47.1,37.4,28.56,South,180,9.3,12.0,69,0.00,,,0.00,WUHU216HW,2013-04-06 14:23:00,
2013-04-06 09:28:00,48.0,37.5,28.56,SE,135,7.6,10.9,68,0.00,,,0.00,WUHU216HW,2013-04-06 14:28:00,
2013-04-06 09:33:00,48.7,38.6,28.56,SE,135,8.5,8.7,68,0.00,,,0.00,WUHU216HW,2013-04-06 14:33:00,
2013-04-06 09:38:00,49.2,38.7,28.55,SSE,158,7.8,11.8,67,0.00,,,0.00,WUHU216HW,2013-04-06 14:38:00,
2013-04-06 09:43:00,49.8,39.2,28.55,South,180,10.9,11.8,67,0.00,,,0.00,WUHU216HW,2013-04-06 14:43:00,
2013-04-06 09:49:00,50.5,39.5,28.55,SE,135,8.5,10.9,66,0.00,,,0.00,WUHU216HW,2013-04-06 14:49:00,
2013-04-06 09:54:00,51.6,40.1,28.55,SSE,158,12.3,12.3,65,0.00,,,0.00,WUHU216HW,2013-04-06 14:54:00,
2013-04-06 09:59:00,51.9,40.5,28.54,SSE,158,10.9,12.3,65,0.00,,,0.00,WUHU216HW,2013-04-06 14:59:00,
2013-04-06 10:04:00,52.3,40.8,28.54,SSE,158,11.4,12.3,65,0.00,,,0.00,WUHU216HW,2013-04-06 15:04:00,
2013-04-06 10:09:00,53.0,41.1,28.54,South,180,12.3,12.3,64,0.00,,,0.00,WUHU216HW,2013-04-06 15:09:00,
2013-04-06 10:14:00,53.4,41.5,28.53,South,180,12.0,12.3,64,0.00,,,0.00,WUHU216HW,2013-04-06 15:14:00,
2013-04-06 10:19:00,53.7,41.8,28.54,South,180,10.2,12.3,64,0.00,,,0.00,WUHU216HW,2013-04-06 15:19:00,
2013-04-06 10:24:00,54.5,42.1,28.53,South,180,9.7,12.0,63,0.00,,,0.00,WUHU216HW,2013-04-06 15:24:00,
2013-04-06 10:30:00,55.0,42.6,28.53,South,180,10.5,10.9,63,0.00,,,0.00,WUHU216HW,2013-04-06 15:30:00,
2013-04-06 10:35:00,55.4,42.5,28.53,SSW,203,7.3,11.8,62,0.00,,,0.00,WUHU216HW,2013-04-06 15:35:00,
2013-04-06 10:40:00,55.9,43.0,28.53,SSW,203,9.1,11.8,62,0.00,,,0.00,WUHU216HW,2013-04-06 15:40:00,
2013-04-06 10:45:00,56.1,43.2,28.53,SSE,158,11.8,11.8,62,0.00,,,0.00,WUHU216HW,2013-04-06 15:45:00,
2013-04-06 10:50:00,57.0,44.1,28.52,South,178,11.9,12.9,62,0.00,,,0.00,WUHU216HW,2013-04-06 15:50:00,
2013-04-06 10:55:00,57.9,44.9,28.52,SSW,203,8.5,12.9,62,0.00,,,0.00,WUHU216HW,2013-04-06 15:55:00,
2013-04-06 11:00:00,58.8,45.7,28.52,SW,225,10.5,12.3,62,0.00,,,0.00,WUHU216HW,2013-04-06 16:00:00,
2013-04-06 11:05:00,60.0,46.6,28.53,SSW,206,10.8,12.5,61,0.00,,,0.00,WUHU216HW,2013-04-06 16:05:00,
2013-04-06 11:10:00,60.6,46.7,28.52,SW,225,10.7,12.5,60,0.00,,,0.00,WUHU216HW,2013-04-06 16:10:00,
2013-04-06 11:15:00,61.1,46.7,28.52,SW,225,15.2,15.2,59,0.00,,,0.00,WUHU216HW,2013-04-06 16:15:00,
2013-04-06 11:20:00,61.8,46.9,28.52,SSW,203,9.8,15.2,58,0.00,,,0.00,WUHU216HW,2013-04-06 16:20:00,
2013-04-06 11:25:00,62.4,46.9,28.52,SW,225,15.8,15.8,57,0.00,,,0.00,WUHU216HW,2013-04-06 16:25:00,
2013-04-06 11:30:00,62.9,46.9,28.52,SW,225,10.7,15.8,56,0.00,,,0.00,WUHU216HW,2013-04-06 16:30:00,
2013-04-06 11:35:00,63.1,46.6,28.52,SW,225,12.3,12.3,55,0.00,,,0.00,WUHU216HW,2013-04-06 16:35:00,
2013-04-06 11:40:00,63.1,46.6,28.52,SSW,203,10.7,12.3,55,0.00,,,0.00,WUHU216HW,2013-04-06 16:40:00,
2013-04-06 11:46:00,63.1,46.6,28.52,SW,225,6.7,14.3,55,0.00,,,0.00,WUHU216HW,2013-04-06 16:46:00,
2013-04-06 11:51:00,62.9,46.4,28.52,SW,225,9.9,14.3,55,0.00,,,0.00,WUHU216HW,2013-04-06 16:51:00,
2013-04-06 11:56:00,62.4,45.9,28.53,SW,225,7.6,12.0,55,0.00,,,0.00,WUHU216HW,2013-04-06 16:56:00,
2013-04-06 12:01:00,61.8,45.9,28.52,SW,225,8.2,8.9,56,0.00,,,0.00,WUHU216HW,2013-04-06 17:01:00,
2013-04-06 12:06:00,61.3,45.4,28.52,SW,214,7.3,9.6,56,0.00,,,0.00,WUHU216HW,2013-04-06 17:06:00,
2013-04-06 12:11:00,61.1,46.2,28.51,SW,225,8.0,9.6,58,0.00,,,0.00,WUHU216HW,2013-04-06 17:11:00,
2013-04-06 12:16:00,60.9,46.1,28.51,SW,216,6.2,9.1,58,0.00,,,0.00,WUHU216HW,2013-04-06 17:16:00,
2013-04-06 12:21:00,60.9,46.1,28.51,SW,225,6.9,7.3,58,0.00,,,0.00,WUHU216HW,2013-04-06 17:21:00,
2013-04-06 12:27:00,60.9,46.6,28.51,SW,225,7.1,9.6,59,0.00,,,0.00,WUHU216HW,2013-04-06 17:27:00,
2013-04-06 12:32:00,60.6,46.2,28.51,SW,225,7.3,9.6,59,0.00,,,0.00,WUHU216HW,2013-04-06 17:32:00,
2013-04-06 12:37:00,60.0,45.7,28.51,SW,225,7.6,7.6,59,0.00,,,0.00,WUHU216HW,2013-04-06 17:37:00,
2013-04-06 12:42:00,59.5,45.1,28.51,SW,225,7.3,8.2,59,0.00,,,0.00,WUHU216HW,2013-04-06 17:42:00,
2013-04-06 12:47:00,59.5,45.6,28.51,SW,225,6.2,8.2,60,0.00,,,0.00,WUHU216HW,2013-04-06 17:47:00,
2013-04-06 12:52:00,60.0,46.6,28.51,SW,225,7.4,7.6,61,0.00,,,0.00,WUHU216HW,2013-04-06 17:52:00,
2013-04-06 12:57:00,60.4,46.5,28.51,SW,225,7.6,7.6,60,0.00,,,0.00,WUHU216HW,2013-04-06 17:57:00,
2013-04-06 13:02:00,60.2,46.4,28.51,SSW,203,8.5,8.5,60,0.00,,,0.00,WUHU216HW,2013-04-06 18:02:00,
2013-04-06 13:07:00,59.9,46.0,28.51,SW,214,7.2,8.5,60,0.00,,,0.00,WUHU216HW,2013-04-06 18:07:00,
2013-04-06 13:12:00,59.5,45.6,28.50,SSW,203,6.2,7.3,60,0.00,,,0.00,WUHU216HW,2013-04-06 18:12:00,
2013-04-06 13:17:00,58.8,45.3,28.50,SW,225,6.9,7.1,61,0.00,,,0.00,WUHU216HW,2013-04-06 18:17:00,
2013-04-06 13:23:00,58.6,45.6,28.50,SW,225,6.7,7.8,62,0.00,,,0.00,WUHU216HW,2013-04-06 18:23:00,
2013-04-06 13:28:00,58.2,45.6,28.50,SW,225,8.7,8.7,63,0.00,,,0.00,WUHU216HW,2013-04-06 18:28:00,
2013-04-06 13:33:00,58.1,45.9,28.50,SW,225,4.4,8.7,64,0.00,,,0.00,WUHU216HW,2013-04-06 18:33:00,
2013-04-06 13:38:00,57.9,45.7,28.50,SW,225,7.3,7.3,64,0.00,,,0.00,WUHU216HW,2013-04-06 18:38:00,
2013-04-06 13:43:00,57.9,46.1,28.50,SW,225,2.2,7.3,65,0.00,,,0.00,WUHU216HW,2013-04-06 18:43:00,
2013-04-06 13:48:00,57.3,46.0,28.50,SW,225,6.0,6.7,66,0.00,,,0.00,WUHU216HW,2013-04-06 18:48:00,
2013-04-06 13:53:00,57.0,46.1,28.50,SW,225,6.9,8.2,67,0.00,,,0.00,WUHU216HW,2013-04-06 18:53:00,
2013-04-06 13:58:00,56.8,46.7,28.51,SSW,209,5.3,8.2,68,0.00,,,0.00,WUHU216HW,2013-04-06 18:58:00,
2013-04-06 14:03:00,56.8,47.1,28.50,SW,225,8.5,8.5,70,0.00,,,0.00,WUHU216HW,2013-04-06 19:03:00,
2013-04-06 14:08:00,56.4,47.1,28.50,SW,225,7.6,8.5,71,0.00,,,0.00,WUHU216HW,2013-04-06 19:08:00,
2013-04-06 14:13:00,56.4,47.5,28.50,SW,225,8.7,8.7,72,0.00,,,0.00,WUHU216HW,2013-04-06 19:13:00,
2013-04-06 14:18:00,56.8,47.8,28.50,SW,225,8.2,8.7,72,0.00,,,0.00,WUHU216HW,2013-04-06 19:18:00,
2013-04-06 14:23:00,56.8,47.8,28.50,SSW,203,2.9,8.7,72,0.00,,,0.00,WUHU216HW,2013-04-06 19:23:00,
2013-04-06 14:29:00,57.0,48.0,28.50,WSW,248,0.0,8.2,72,0.00,,,0.00,WUHU216HW,2013-04-06 19:29:00,
2013-04-06 14:34:00,57.0,47.6,28.50,WSW,248,1.3,7.3,71,0.00,,,0.00,WUHU216HW,2013-04-06 19:34:00,
2013-04-06 14:39:00,56.8,47.1,28.51,WSW,248,4.0,7.3,70,0.00,,,0.00,WUHU216HW,2013-04-06 19:39:00,
2013-04-06 14:44:00,56.4,47.1,28.50,WSW,248,1.3,4.0,71,0.00,,,0.00,WUHU216HW,2013-04-06 19:44:00,
2013-04-06 14:50:00,56.1,46.8,28.51,WSW,248,4.4,4.4,71,0.00,,,0.00,WUHU216HW,2013-04-06 19:50:00,
2013-04-06 14:55:00,55.5,46.7,28.51,West,270,2.2,4.4,72,0.00,,,0.00,WUHU216HW,2013-04-06 19:55:00,
2013-04-06 15:00:00,55.0,46.8,28.51,WSW,248,0.0,2.2,74,0.00,,,0.00,WUHU216HW,2013-04-06 20:00:00,
2013-04-06 15:05:00,54.5,46.7,28.51,SW,225,2.4,2.4,75,0.04,,,0.04,WUHU216HW,2013-04-06 20:05:00,
2013-04-06 15:10:00,54.1,46.7,28.51,SW,225,1.1,2.4,76,0.04,,,0.04,WUHU216HW,2013-04-06 20:10:00,
2013-04-06 15:15:00,53.7,46.0,28.50,West,270,0.0,2.4,76,0.04,,,0.04,WUHU216HW,2013-04-06 20:15:00,
2013-04-06 15:20:00,52.5,45.1,28.50,West,270,0.0,0.0,76,0.06,,,0.04,WUHU216HW,2013-04-06 20:20:00,
2013-04-06 15:25:00,51.9,44.6,28.50,West,270,0.0,0.0,76,0.06,,,0.06,WUHU216HW,2013-04-06 20:25:00,
2013-04-06 15:30:00,51.0,44.4,28.50,West,270,0.0,0.0,77,0.08,,,0.08,WUHU216HW,2013-04-06 20:30:00,
2013-04-06 15:35:00,50.9,43.9,28.49,West,270,0.0,0.0,77,0.08,,,0.08,WUHU216HW,2013-04-06 20:35:00,
2013-04-06 15:40:00,50.7,43.7,28.49,West,270,0.0,0.0,77,0.08,,,0.08,WUHU216HW,2013-04-06 20:40:00,
2013-04-06 15:45:00,50.3,43.3,28.49,West,270,0.0,0.0,77,0.10,,,0.08,WUHU216HW,2013-04-06 20:45:00,
2013-04-06 15:50:00,50.1,43.5,28.49,West,270,0.0,0.0,78,0.10,,,0.10,WUHU216HW,2013-04-06 20:50:00,
2013-04-06 15:55:00,49.8,43.1,28.50,West,270,0.0,0.0,78,0.10,,,0.10,WUHU216HW,2013-04-06 20:55:00,
2013-04-06 16:00:00,49.8,43.5,28.50,West,270,0.0,0.0,79,0.10,,,0.10,WUHU216HW,2013-04-06 21:00:00,
2013-04-06 16:05:00,49.8,43.8,28.51,West,270,0.0,0.0,80,0.06,,,0.10,WUHU216HW,2013-04-06 21:05:00,
2013-04-06 16:11:00,49.6,43.7,28.51,WNW,293,0.0,0.0,80,0.06,,,0.10,WUHU216HW,2013-04-06 21:11:00,
2013-04-06 16:16:00,49.2,43.6,28.51,West,270,0.0,0.0,81,0.06,,,0.10,WUHU216HW,2013-04-06 21:16:00,
2013-04-06 16:21:00,49.2,43.6,28.51,West,270,0.0,0.0,81,0.04,,,0.10,WUHU216HW,2013-04-06 21:21:00,
2013-04-06 16:26:00,49.2,43.6,28.51,West,270,0.0,0.0,81,0.02,,,0.10,WUHU216HW,2013-04-06 21:26:00,
2013-04-06 16:31:00,49.1,43.4,28.51,West,270,0.0,0.0,81,0.02,,,0.10,WUHU216HW,2013-04-06 21:31:00,
2013-04-06 16:36:00,48.9,43.2,28.51,WNW,293,5.1,5.1,81,0.02,,,0.10,WUHU216HW,2013-04-06 21:36:00,
2013-04-06 16:41:00,48.7,43.1,28.52,West,270,2.9,5.1,81,0.02,,,0.10,WUHU216HW,2013-04-06 21:41:00,
2013-04-06 16:47:00,48.5,42.9,28.52,West,270,0.0,2.9,81,0.00,,,0.10,WUHU216HW,2013-04-06 21:47:00,
2013-04-06 16:52:00,48.3,42.7,28.52,West,270,0.0,2.9,81,0.00,,,0.10,WUHU216HW,2013-04-06 21:52:00,
2013-04-06 16:57:00,48.3,43.0,28.53,West,270,0.0,0.0,82,0.00,,,0.10,WUHU216HW,2013-04-06 21:57:00,
2013-04-06 17:02:00,48.2,42.9,28.53,West,270,0.0,0.0,82,0.00,,,0.10,WUHU216HW,2013-04-06 22:02:00,
2013-04-06 17:07:00,48.0,43.0,28.53,West,270,0.0,0.0,83,0.00,,,0.10,WUHU216HW,2013-04-06 22:07:00,
2013-04-06 17:12:00,48.0,43.0,28.54,West,270,0.0,0.0,83,0.00,,,0.10,WUHU216HW,2013-04-06 22:12:00,
2013-04-06 17:17:00,48.0,43.0,28.54,West,270,2.4,2.4,83,0.00,,,0.10,WUHU216HW,2013-04-06 22:17:00,
2013-04-06 17:22:00,47.8,43.2,28.55,West,270,4.9,4.9,84,0.00,,,0.10,WUHU216HW,2013-04-06 22:22:00,
2013-04-06 17:27:00,47.8,43.2,28.55,West,270,0.0,4.9,84,0.00,,,0.10,WUHU216HW,2013-04-06 22:27:00,
2013-04-06 17:32:00,48.0,43.3,28.55,West,270,0.0,1.3,84,0.00,,,0.10,WUHU216HW,2013-04-06 22:32:00,
2013-04-06 17:37:00,47.8,43.2,28.56,West,270,0.0,0.0,84,0.00,,,0.10,WUHU216HW,2013-04-06 22:37:00,
2013-04-06 17:42:00,47.8,42.8,28.56,West,270,0.0,2.9,83,0.00,,,0.10,WUHU216HW,2013-04-06 22:42:00,
2013-04-06 17:47:00,47.8,42.8,28.56,West,270,0.0,2.9,83,0.00,,,0.10,WUHU216HW,2013-04-06 22:47:00,
2013-04-06 17:53:00,47.6,42.7,28.56,West,270,0.2,0.2,83,0.00,,,0.10,WUHU216HW,2013-04-06 22:53:00,
2013-04-06 17:58:00,47.4,42.5,28.56,West,270,0.0,0.2,83,0.00,,,0.10,WUHU216HW,2013-04-06 22:58:00,
2013-04-06 18:03:00,47.4,42.5,28.57,West,270,0.0,1.5,83,0.00,,,0.10,WUHU216HW,2013-04-06 23:03:00,
2013-04-06 18:08:00,47.3,42.3,28.57,West,270,7.6,7.6,83,0.00,,,0.10,WUHU216HW,2013-04-06 23:08:00,
2013-04-06 18:13:00,46.9,42.0,28.58,WNW,293,2.5,7.6,83,0.00,,,0.10,WUHU216HW,2013-04-06 23:13:00,
2013-04-06 18:18:00,46.7,41.8,28.58,WNW,293,6.0,6.0,83,0.00,,,0.10,WUHU216HW,2013-04-06 23:18:00,
2013-04-06 18:23:00,46.5,41.7,28.58,WNW,293,2.6,6.0,83,0.00,,,0.10,WUHU216HW,2013-04-06 23:23:00,
2013-04-06 18:28:00,46.4,41.5,28.58,NW,315,8.2,8.2,83,0.00,,,0.10,WUHU216HW,2013-04-06 23:28:00,
2013-04-06 18:34:00,46.2,41.3,28.59,NW,315,8.2,8.2,83,0.00,,,0.10,WUHU216HW,2013-04-06 23:34:00,
2013-04-06 18:39:00,46.2,41.3,28.59,NW,315,4.9,8.2,83,0.00,,,0.10,WUHU216HW,2013-04-06 23:39:00,
2013-04-06 18:44:00,46.2,41.3,28.59,NW,315,3.8,8.2,83,0.00,,,0.10,WUHU216HW,2013-04-06 23:44:00,
2013-04-06 18:49:00,46.2,41.3,28.59,NW,315,3.3,6.4,83,0.00,,,0.10,WUHU216HW,2013-04-06 23:49:00,
2013-04-06 18:54:00,46.2,41.3,28.59,WNW,298,4.0,6.4,83,0.00,,,0.10,WUHU216HW,2013-04-06 23:54:00,
2013-04-06 18:59:00,46.2,41.3,28.59,NW,315,6.0,8.0,83,0.00,,,0.10,WUHU216HW,2013-04-06 23:59:00,
2013-04-06 19:04:00,46.2,41.3,28.59,NW,315,3.3,8.0,83,0.00,,,0.10,WUHU216HW,2013-04-07 00:04:00,
2013-04-06 19:10:00,46.2,41.3,28.59,NW,315,8.2,8.2,83,0.00,,,0.10,WUHU216HW,2013-04-07 00:10:00,
2013-04-06 19:15:00,46.2,41.3,28.60,NW,315,7.8,8.2,83,0.00,,,0.10,WUHU216HW,2013-04-07 00:15:00,
2013-04-06 19:20:00,46.2,41.3,28.59,NW,315,4.2,8.2,83,0.00,,,0.10,WUHU216HW,2013-04-07 00:20:00,
2013-04-06 19:25:00,46.0,41.1,28.59,WNW,293,2.4,6.0,83,0.00,,,0.10,WUHU216HW,2013-04-07 00:25:00,
2013-04-06 19:30:00,46.0,41.1,28.60,WNW,299,5.1,7.6,83,0.00,,,0.10,WUHU216HW,2013-04-07 00:30:00,
2013-04-06 19:35:00,46.0,41.1,28.60,NW,315,7.3,7.8,83,0.00,,,0.10,WUHU216HW,2013-04-07 00:35:00,
2013-04-06 19:40:00,46.0,41.1,28.60,NW,315,6.0,7.8,83,0.00,,,0.10,WUHU216HW,2013-04-07 00:40:00,
2013-04-06 19:45:00,45.6,40.8,28.61,NW,315,4.1,6.9,83,0.00,,,0.10,WUHU216HW,2013-04-07 00:45:00,
2013-04-06 19:50:00,45.6,40.8,28.61,NW,325,2.0,6.9,83,0.00,,,0.10,WUHU216HW,2013-04-07 00:50:00,
2013-04-06 19:55:00,45.6,40.8,28.61,WNW,293,0.8,6.7,83,0.00,,,0.10,WUHU216HW,2013-04-07 00:55:00,
2013-04-06 20:00:00,45.5,40.6,28.61,WNW,293,7.6,7.6,83,0.00,,,0.10,WUHU216HW,2013-04-07 01:00:00,
2013-04-06 20:06:00,45.3,40.1,28.61,NW,315,4.9,7.6,82,0.00,,,0.10,WUHU216HW,2013-04-07 01:06:00,
2013-04-06 20:11:00,45.1,39.9,28.62,NW,315,7.3,7.6,82,0.00,,,0.10,WUHU216HW,2013-04-07 01:11:00,
2013-04-06 20:16:00,44.9,39.5,28.62,WNW,293,7.4,7.8,81,0.00,,,0.10,WUHU216HW,2013-04-07 01:16:00,
2013-04-06 20:21:00,44.9,39.5,28.62,WNW,301,3.3,7.8,81,0.00,,,0.10,WUHU216HW,2013-04-07 01:21:00,
2013-04-06 20:27:00,44.4,38.9,28.62,NW,315,5.5,6.9,81,0.00,,,0.10,WUHU216HW,2013-04-07 01:27:00,
2013-04-06 20:32:00,44.2,38.7,28.63,NNW,338,10.2,10.2,81,0.00,,,0.10,WUHU216HW,2013-04-07 01:32:00,
2013-04-06 20:37:00,44.0,38.6,28.63,NNW,338,8.7,10.2,81,0.00,,,0.10,WUHU216HW,2013-04-07 01:37:00,
2013-04-06 20:42:00,43.8,38.4,28.64,WNW,293,7.6,8.7,81,0.00,,,0.10,WUHU216HW,2013-04-07 01:42:00,
2013-04-06 20:47:00,43.8,38.4,28.64,NW,315,4.8,7.6,81,0.00,,,0.10,WUHU216HW,2013-04-07 01:47:00,
2013-04-06 20:52:00,43.7,38.2,28.65,NW,315,7.8,7.8,81,0.00,,,0.10,WUHU216HW,2013-04-07 01:52:00,
2013-04-06 20:57:00,43.7,38.2,28.65,NW,315,5.5,7.8,81,0.00,,,0.10,WUHU216HW,2013-04-07 01:57:00,
2013-04-06 21:03:00,43.5,38.0,28.65,NW,315,5.5,6.4,81,0.00,,,0.10,WUHU216HW,2013-04-07 02:03:00,
2013-04-06 21:08:00,43.5,38.0,28.65,West,270,6.4,6.4,81,0.00,,,0.10,WUHU216HW,2013-04-07 02:08:00,
2013-04-06 21:13:00,43.5,38.0,28.65,NW,315,4.4,7.1,81,0.00,,,0.10,WUHU216HW,2013-04-07 02:13:00,
2013-04-06 21:18:00,43.3,37.8,28.65,NW,315,5.5,7.3,81,0.00,,,0.10,WUHU216HW,2013-04-07 02:18:00,
2013-04-06 21:23:00,43.1,37.7,28.66,NW,315,2.7,7.3,81,0.00,,,0.10,WUHU216HW,2013-04-07 02:23:00,
2013-04-06 21:28:00,42.9,37.5,28.66,NNW,338,12.7,12.7,81,0.00,,,0.10,WUHU216HW,2013-04-07 02:28:00,
2013-04-06 21:33:00,42.9,37.5,28.66,NNW,338,7.8,12.7,81,0.00,,,0.10,WUHU216HW,2013-04-07 02:33:00,
2013-04-06 21:38:00,42.9,37.5,28.66,NNW,338,0.0,12.7,81,0.00,,,0.10,WUHU216HW,2013-04-07 02:38:00,
2013-04-06 21:43:00,42.8,37.3,28.67,NW,315,6.6,8.0,81,0.00,,,0.10,WUHU216HW,2013-04-07 02:43:00,
2013-04-06 21:48:00,42.6,37.1,28.67,NW,315,5.9,8.0,81,0.00,,,0.10,WUHU216HW,2013-04-07 02:48:00,
2013-04-06 21:53:00,42.6,37.1,28.67,NW,315,8.9,8.9,81,0.00,,,0.10,WUHU216HW,2013-04-07 02:53:00,
2013-04-06 21:58:00,42.6,37.1,28.67,NW,315,7.2,8.9,81,0.00,,,0.10,WUHU216HW,2013-04-07 02:58:00,
2013-04-06 22:03:00,42.6,37.1,28.67,NNW,338,6.9,8.0,81,0.00,,,0.10,WUHU216HW,2013-04-07 03:03:00,
2013-04-06 22:08:00,42.6,37.1,28.68,NW,315,6.7,7.8,81,0.00,,,0.10,WUHU216HW,2013-04-07 03:08:00,
2013-04-06 22:13:00,42.6,37.1,28.68,WNW,293,8.2,8.2,81,0.00,,,0.10,WUHU216HW,2013-04-07 03:13:00,
2013-04-06 22:19:00,42.6,37.1,28.68,NNW,338,4.2,8.2,81,0.00,,,0.10,WUHU216HW,2013-04-07 03:19:00,
2013-04-06 22:25:00,42.6,37.1,28.68,NNW,336,6.8,7.6,81,0.00,,,0.10,WUHU216HW,2013-04-07 03:25:00,
2013-04-06 22:30:00,42.4,36.9,28.68,NW,315,6.7,7.6,81,0.00,,,0.10,WUHU216HW,2013-04-07 03:30:00,
2013-04-06 22:35:00,42.4,36.9,28.68,NW,315,1.1,6.7,81,0.00,,,0.10,WUHU216HW,2013-04-07 03:35:00,
2013-04-06 22:40:00,42.4,36.9,28.69,NNW,338,3.8,5.1,81,0.00,,,0.10,WUHU216HW,2013-04-07 03:40:00,
2013-04-06 22:45:00,42.4,36.9,28.69,NNW,338,6.0,6.0,81,0.00,,,0.10,WUHU216HW,2013-04-07 03:45:00,
2013-04-06 22:50:00,42.2,36.8,28.69,NNW,338,3.8,6.0,81,0.00,,,0.10,WUHU216HW,2013-04-07 03:50:00,
2013-04-06 22:55:00,42.0,36.6,28.69,NNW,338,3.8,6.4,81,0.00,,,0.10,WUHU216HW,2013-04-07 03:55:00,
2013-04-06 23:00:00,42.0,36.6,28.69,NW,315,2.0,6.4,81,0.00,,,0.10,WUHU216HW,2013-04-07 04:00:00,
2013-04-06 23:01:00,42.0,36.6,28.69,NW,315,6.7,6.7,81,0.00,,,0.10,WUHU216HW,2013-04-07 04:01:00,
2013-04-06 23:03:00,42.0,36.6,28.69,NW,315,5.8,6.7,81,0.00,,,0.10,WUHU216HW,2013-04-07 04:03:00,
2013-04-06 23:08:00,41.9,36.4,28.69,NW,315,5.1,6.7,81,0.00,,,0.10,WUHU216HW,2013-04-07 04:08:00,
2013-04-06 23:13:00,41.5,36.0,28.69,NNW,338,4.4,6.0,81,0.00,,,0.10,WUHU216HW,2013-04-07 04:13:00,
2013-04-06 23:18:00,41.5,35.7,28.69,NW,315,7.1,7.1,80,0.00,,,0.10,WUHU216HW,2013-04-07 04:18:00,
2013-04-06 23:23:00,41.3,35.6,28.69,NNW,338,8.7,8.7,80,0.00,,,0.10,WUHU216HW,2013-04-07 04:23:00,
2013-04-06 23:28:00,41.1,35.4,28.69,NW,315,3.1,8.7,80,0.00,,,0.10,WUHU216HW,2013-04-07 04:28:00,
2013-04-06 23:33:00,41.1,35.7,28.69,NNW,338,0.0,4.2,81,0.00,,,0.10,WUHU216HW,2013-04-07 04:33:00,
2013-04-06 23:38:00,41.1,35.7,28.70,NNW,338,0.0,0.0,81,0.00,,,0.10,WUHU216HW,2013-04-07 04:38:00,
2013-04-06 23:43:00,41.0,35.5,28.70,NW,315,0.6,0.6,81,0.00,,,0.10,WUHU216HW,2013-04-07 04:43:00,
2013-04-06 23:49:00,40.8,35.3,28.70,NNE,23,7.3,7.3,81,0.00,,,0.10,WUHU216HW,2013-04-07 04:49:00,
2013-04-06 23:54:00,40.8,35.3,28.70,North,0,6.7,7.3,81,0.00,,,0.10,WUHU216HW,2013-04-07 04:54:00,
2013-04-06 23:59:00,40.8,35.3,28.71,NNW,338,6.4,6.7,81,0.00,,,0.10,WUHU216HW,2013-04-07 04:59:00,